createdAt,value
2019-04-29T00:00:32.957Z,39.70
2019-04-29T00:01:07.305Z,39.92
2019-04-29T00:01:41.531Z,39.18
2019-04-29T00:02:20.543Z,38.95
2019-04-29T00:02:53.592Z,39.33
2019-04-29T00:03:26.544Z,38.45
2019-04-29T00:03:59.609Z,38.33
2019-04-29T00:04:32.752Z,38.28
2019-04-29T00:05:06.395Z,38.13
2019-04-29T00:05:39.555Z,38.13
2019-04-29T00:06:13.604Z,38.63
2019-04-29T00:06:46.615Z,38.42
2019-04-29T00:07:19.654Z,38.13
2019-04-29T00:07:52.700Z,37.73
2019-04-29T00:08:25.869Z,38.05
2019-04-29T00:08:58.954Z,38.67
2019-04-29T00:09:32.127Z,37.98
2019-04-29T00:10:07.191Z,38.13
2019-04-29T00:10:40.350Z,38.05
2019-04-29T00:11:13.488Z,38.13
2019-04-29T00:11:46.540Z,38.55
2019-04-29T00:12:19.891Z,37.93
2019-04-29T00:12:52.952Z,37.80
2019-04-29T00:13:26.211Z,37.60
2019-04-29T00:13:59.326Z,37.93
2019-04-29T00:14:34.375Z,38.28
2019-04-29T00:15:30.202Z,37.98
2019-04-29T00:16:11.039Z,39.03
2019-04-29T00:17:06.745Z,37.83
2019-04-29T00:17:49.590Z,38.95
2019-04-29T00:18:28.397Z,37.50
2019-04-29T00:19:26.703Z,37.75
2019-04-29T00:20:25.337Z,37.80
2019-04-29T00:20:58.379Z,37.60
2019-04-29T00:21:32.413Z,37.70
2019-04-29T00:22:05.715Z,37.65
2019-04-29T00:22:38.770Z,37.63
2019-04-29T00:23:11.791Z,37.42
2019-04-29T00:23:44.811Z,37.40
2019-04-29T00:24:17.802Z,38.15
2019-04-29T00:24:50.854Z,37.67
2019-04-29T00:25:24.045Z,37.45
2019-04-29T00:25:57.069Z,36.98
2019-04-29T00:26:31.276Z,37.60
2019-04-29T00:27:05.738Z,38.42
2019-04-29T00:27:38.927Z,38.28
2019-04-29T00:28:12.065Z,37.90
2019-04-29T00:28:45.062Z,37.67
2019-04-29T00:29:18.185Z,37.35
2019-04-29T00:29:51.191Z,37.70
2019-04-29T00:30:24.215Z,38.45
2019-04-29T00:30:57.299Z,37.53
2019-04-29T00:31:30.249Z,38.15
2019-04-29T00:32:03.856Z,38.05
2019-04-29T00:32:36.903Z,38.25
2019-04-29T00:33:09.895Z,38.00
2019-04-29T00:33:42.987Z,38.17
2019-04-29T00:34:15.993Z,38.30
2019-04-29T00:34:49.048Z,37.42
2019-04-29T00:35:22.031Z,37.50
2019-04-29T00:35:55.107Z,37.65
2019-04-29T00:36:33.081Z,37.75
2019-04-29T00:37:14.067Z,38.45
2019-04-29T00:38:09.557Z,37.78
2019-04-29T00:38:58.806Z,37.58
2019-04-29T00:39:57.501Z,37.78
2019-04-29T00:40:52.820Z,36.95
2019-04-29T00:41:52.386Z,38.15
2019-04-29T00:42:39.414Z,38.30
2019-04-29T00:43:20.970Z,38.00
2019-04-29T00:43:56.751Z,38.40
2019-04-29T00:44:29.771Z,38.02
2019-04-29T00:45:03.609Z,38.15
2019-04-29T00:45:36.820Z,38.65
2019-04-29T00:46:10.547Z,37.95
2019-04-29T00:46:43.741Z,39.48
2019-04-29T00:47:16.872Z,37.28
2019-04-29T00:47:50.857Z,37.30
2019-04-29T00:48:23.879Z,38.38
2019-04-29T00:48:57.152Z,37.67
2019-04-29T00:49:30.204Z,38.10
2019-04-29T00:50:05.763Z,38.55
2019-04-29T00:50:38.824Z,38.40
2019-04-29T00:51:11.919Z,38.08
2019-04-29T00:51:44.859Z,38.65
2019-04-29T00:52:17.861Z,38.25
2019-04-29T00:52:50.707Z,38.20
2019-04-29T00:53:23.746Z,38.00
2019-04-29T00:54:04.765Z,38.55
2019-04-29T00:54:43.671Z,38.55
2019-04-29T00:55:19.508Z,37.78
2019-04-29T00:55:52.814Z,38.45
2019-04-29T00:56:25.767Z,38.53
2019-04-29T00:56:58.921Z,38.88
2019-04-29T00:57:31.887Z,38.20
2019-04-29T00:58:04.851Z,38.23
2019-04-29T00:58:37.910Z,38.45
2019-04-29T00:59:10.942Z,38.88
2019-04-29T00:59:43.906Z,37.60
2019-04-29T01:00:34.705Z,38.20
2019-04-29T01:01:11.343Z,38.40
2019-04-29T01:01:44.369Z,39.08
2019-04-29T01:02:17.413Z,38.40
2019-04-29T01:02:50.319Z,39.30
2019-04-29T01:03:23.883Z,39.13
2019-04-29T01:03:56.986Z,39.00
2019-04-29T01:04:30.019Z,39.03
2019-04-29T01:05:03.537Z,38.30
2019-04-29T01:05:37.007Z,37.75
2019-04-29T01:06:11.034Z,38.48
2019-04-29T01:06:44.162Z,38.20
2019-04-29T01:07:17.289Z,38.38
2019-04-29T01:07:50.743Z,38.67
2019-04-29T01:08:23.879Z,37.98
2019-04-29T01:08:57.144Z,38.95
2019-04-29T01:09:30.649Z,38.40
2019-04-29T01:10:04.219Z,38.65
2019-04-29T01:10:37.119Z,38.50
2019-04-29T01:11:10.275Z,39.38
2019-04-29T01:11:43.270Z,38.67
2019-04-29T01:12:16.320Z,38.48
2019-04-29T01:12:49.206Z,38.83
2019-04-29T01:13:22.799Z,38.38
2019-04-29T01:13:55.797Z,38.20
2019-04-29T01:14:28.837Z,38.70
2019-04-29T01:15:01.841Z,38.75
2019-04-29T01:15:34.929Z,39.03
2019-04-29T01:16:07.953Z,38.23
2019-04-29T01:16:40.999Z,38.55
2019-04-29T01:17:15.102Z,39.18
2019-04-29T01:17:48.155Z,38.80
2019-04-29T01:18:21.173Z,39.78
2019-04-29T01:18:54.063Z,39.35
2019-04-29T01:19:26.965Z,39.08
2019-04-29T01:20:00.035Z,39.85
2019-04-29T01:20:33.041Z,39.38
2019-04-29T01:21:06.038Z,38.85
2019-04-29T01:21:39.077Z,40.00
2019-04-29T01:22:11.967Z,40.10
2019-04-29T01:22:45.003Z,39.45
2019-04-29T01:23:18.469Z,39.42
2019-04-29T01:23:51.551Z,39.00
2019-04-29T01:24:24.619Z,38.60
2019-04-29T01:24:57.557Z,40.03
2019-04-29T01:25:30.559Z,39.48
2019-04-29T01:26:27.827Z,39.85
2019-04-29T01:27:35.592Z,39.50
2019-04-29T01:28:16.256Z,40.05
2019-04-29T01:28:52.149Z,40.43
2019-04-29T01:29:27.146Z,40.40
2019-04-29T01:30:00.267Z,39.35
2019-04-29T01:31:04.521Z,40.20
2019-04-29T01:31:37.894Z,39.98
2019-04-29T01:32:10.887Z,40.55
2019-04-29T01:32:43.709Z,40.30
2019-04-29T01:33:16.735Z,39.98
2019-04-29T01:33:52.979Z,40.25
2019-04-29T01:34:30.941Z,40.17
2019-04-29T01:35:04.127Z,40.08
2019-04-29T01:35:37.885Z,40.55
2019-04-29T01:36:45.650Z,40.23
2019-04-29T01:37:18.874Z,40.88
2019-04-29T01:37:51.915Z,40.33
2019-04-29T01:38:24.941Z,40.35
2019-04-29T01:39:00.230Z,40.23
2019-04-29T01:39:40.913Z,39.35
2019-04-29T01:40:33.611Z,39.90
2019-04-29T01:41:13.167Z,40.73
2019-04-29T01:42:10.323Z,40.15
2019-04-29T01:42:43.515Z,40.38
2019-04-29T01:43:16.509Z,39.70
2019-04-29T01:44:09.153Z,39.42
2019-04-29T01:44:42.215Z,40.48
2019-04-29T01:45:15.130Z,39.75
2019-04-29T01:45:48.122Z,40.10
2019-04-29T01:46:21.176Z,40.65
2019-04-29T01:46:54.304Z,40.80
2019-04-29T01:47:27.142Z,40.08
2019-04-29T01:48:00.148Z,41.20
2019-04-29T01:48:33.146Z,40.70
2019-04-29T01:49:06.282Z,40.43
2019-04-29T01:49:39.185Z,40.67
2019-04-29T01:50:12.211Z,40.43
2019-04-29T01:50:45.284Z,40.30
2019-04-29T01:51:18.279Z,40.43
2019-04-29T01:51:51.424Z,40.60
2019-04-29T01:52:24.466Z,40.20
2019-04-29T01:52:57.392Z,40.70
2019-04-29T01:53:30.582Z,39.85
2019-04-29T01:54:03.969Z,40.17
2019-04-29T01:54:36.902Z,40.45
2019-04-29T01:55:09.939Z,39.83
2019-04-29T01:55:43.823Z,39.67
2019-04-29T01:56:17.979Z,39.70
2019-04-29T01:56:51.047Z,39.78
2019-04-29T01:57:24.164Z,40.58
2019-04-29T01:57:56.984Z,40.88
2019-04-29T01:58:29.945Z,41.18
2019-04-29T01:59:03.382Z,40.30
2019-04-29T01:59:36.612Z,40.03
2019-04-29T02:00:12.446Z,40.17
2019-04-29T02:00:45.543Z,40.70
2019-04-29T02:01:19.184Z,40.50
2019-04-29T02:01:52.250Z,40.08
2019-04-29T02:02:25.354Z,40.50
2019-04-29T02:02:58.423Z,39.73
2019-04-29T02:03:31.467Z,39.88
2019-04-29T02:04:04.720Z,39.27
2019-04-29T02:04:37.802Z,40.03
2019-04-29T02:05:11.076Z,40.08
2019-04-29T02:05:44.162Z,40.45
2019-04-29T02:06:17.265Z,40.20
2019-04-29T02:06:52.070Z,40.63
2019-04-29T02:07:25.142Z,41.65
2019-04-29T02:07:58.249Z,41.42
2019-04-29T02:08:31.376Z,41.53
2019-04-29T02:09:10.251Z,40.33
2019-04-29T02:10:01.751Z,40.73
2019-04-29T02:10:34.942Z,41.02
2019-04-29T02:11:07.945Z,41.48
2019-04-29T02:11:40.951Z,40.45
2019-04-29T02:12:13.969Z,41.28
2019-04-29T02:12:47.010Z,40.78
2019-04-29T02:13:20.006Z,40.12
2019-04-29T02:13:53.154Z,39.83
2019-04-29T02:14:26.193Z,39.98
2019-04-29T02:14:59.120Z,39.63
2019-04-29T02:15:32.147Z,39.35
2019-04-29T02:16:05.299Z,40.23
2019-04-29T02:16:38.214Z,40.67
2019-04-29T02:17:11.387Z,40.10
2019-04-29T02:17:44.175Z,40.67
2019-04-29T02:18:17.131Z,41.68
2019-04-29T02:18:50.152Z,41.65
2019-04-29T02:19:23.103Z,41.55
2019-04-29T02:19:56.012Z,41.88
2019-04-29T02:20:29.174Z,41.63
2019-04-29T02:21:02.064Z,41.65
2019-04-29T02:21:38.171Z,42.23
2019-04-29T02:22:27.610Z,41.98
2019-04-29T02:23:35.428Z,42.38
2019-04-29T02:24:14.084Z,41.05
2019-04-29T02:24:54.080Z,42.15
2019-04-29T02:25:32.875Z,41.48
2019-04-29T02:26:06.515Z,41.30
2019-04-29T02:26:39.504Z,41.63
2019-04-29T02:27:15.960Z,42.03
2019-04-29T02:27:48.991Z,41.25
2019-04-29T02:28:21.906Z,41.73
2019-04-29T02:28:55.944Z,41.08
2019-04-29T02:29:28.914Z,42.30
2019-04-29T02:30:02.764Z,42.23
2019-04-29T02:30:48.336Z,42.50
2019-04-29T02:31:39.945Z,41.33
2019-04-29T02:32:12.886Z,41.33
2019-04-29T02:32:45.925Z,41.48
2019-04-29T02:33:19.061Z,41.40
2019-04-29T02:33:52.060Z,41.70
2019-04-29T02:34:25.007Z,41.10
2019-04-29T02:34:57.980Z,41.37
2019-04-29T02:35:31.019Z,41.63
2019-04-29T02:36:03.973Z,41.00
2019-04-29T02:36:37.373Z,41.28
2019-04-29T02:37:12.204Z,41.15
2019-04-29T02:37:45.259Z,41.15
2019-04-29T02:38:43.818Z,41.68
2019-04-29T02:39:35.303Z,40.90
2019-04-29T02:40:21.990Z,42.65
2019-04-29T02:41:13.628Z,42.90
2019-04-29T02:42:15.312Z,41.37
2019-04-29T02:43:01.110Z,41.75
2019-04-29T02:43:35.615Z,41.83
2019-04-29T02:44:09.413Z,41.53
2019-04-29T02:44:42.556Z,41.10
2019-04-29T02:45:22.260Z,42.53
2019-04-29T02:45:55.287Z,41.75
2019-04-29T02:46:28.288Z,42.48
2019-04-29T02:47:01.435Z,41.90
2019-04-29T02:47:34.546Z,41.37
2019-04-29T02:48:08.440Z,41.77
2019-04-29T02:48:41.609Z,41.00
2019-04-29T02:49:14.686Z,41.15
2019-04-29T02:49:47.836Z,40.80
2019-04-29T02:50:21.923Z,41.33
2019-04-29T02:50:55.123Z,41.08
2019-04-29T02:51:47.028Z,41.08
2019-04-29T02:52:20.131Z,41.33
2019-04-29T02:52:53.194Z,40.75
2019-04-29T02:53:26.252Z,40.65
2019-04-29T02:53:59.339Z,39.83
2019-04-29T02:54:32.754Z,41.02
2019-04-29T02:55:07.934Z,40.63
2019-04-29T02:55:45.854Z,39.83
2019-04-29T02:56:18.826Z,40.15
2019-04-29T02:57:02.348Z,40.08
2019-04-29T02:57:53.595Z,40.10
2019-04-29T02:58:37.803Z,41.60
2019-04-29T02:59:11.328Z,40.10
2019-04-29T02:59:46.822Z,39.95
2019-04-29T03:00:31.866Z,41.30
2019-04-29T03:01:32.442Z,40.40
2019-04-29T03:02:32.262Z,42.40
2019-04-29T03:03:14.997Z,41.00
2019-04-29T03:04:19.795Z,41.90
2019-04-29T03:05:15.448Z,41.65
2019-04-29T03:05:51.904Z,40.92
2019-04-29T03:06:25.817Z,41.33
2019-04-29T03:06:58.950Z,41.58
2019-04-29T03:07:32.027Z,41.23
2019-04-29T03:08:05.042Z,40.33
2019-04-29T03:08:38.164Z,42.48
2019-04-29T03:09:12.153Z,41.77
2019-04-29T03:09:45.448Z,40.85
2019-04-29T03:10:18.489Z,41.58
2019-04-29T03:10:51.548Z,41.80
2019-04-29T03:11:24.815Z,41.95
2019-04-29T03:12:01.639Z,42.10
2019-04-29T03:12:33.067Z,42.48
2019-04-29T03:13:07.324Z,42.58
2019-04-29T03:13:40.479Z,41.58
2019-04-29T03:14:13.710Z,40.60
2019-04-29T03:14:46.651Z,41.20
2019-04-29T03:15:29.304Z,41.63
2019-04-29T03:16:03.894Z,41.20
2019-04-29T03:16:36.964Z,40.70
2019-04-29T03:17:10.217Z,40.78
2019-04-29T03:17:43.410Z,41.55
2019-04-29T03:18:16.818Z,42.03
2019-04-29T03:18:58.006Z,41.00
2019-04-29T03:19:35.693Z,41.58
2019-04-29T03:20:17.781Z,41.55
2019-04-29T03:21:04.641Z,41.18
2019-04-29T03:21:47.718Z,42.05
2019-04-29T03:22:20.762Z,42.23
2019-04-29T03:23:07.055Z,42.98
2019-04-29T03:23:40.204Z,42.78
2019-04-29T03:24:13.325Z,47.20
2019-04-29T03:24:46.418Z,47.00
2019-04-29T03:25:19.359Z,43.98
2019-04-29T03:25:52.416Z,47.95
2019-04-29T03:26:25.610Z,48.17
2019-04-29T03:27:00.100Z,45.23
2019-04-29T03:27:33.174Z,44.88
2019-04-29T03:28:06.223Z,42.40
2019-04-29T03:28:39.342Z,45.03
2019-04-29T03:29:21.697Z,45.20
2019-04-29T03:29:55.723Z,43.20
2019-04-29T03:30:28.762Z,42.50
2019-04-29T03:31:01.818Z,44.55
2019-04-29T03:31:39.029Z,43.02
2019-04-29T03:32:09.586Z,46.00
2019-04-29T03:32:42.637Z,46.25
2019-04-29T03:33:15.616Z,45.28
2019-04-29T03:33:48.586Z,44.40
2019-04-29T03:34:21.840Z,43.98
2019-04-29T03:34:56.112Z,45.12
2019-04-29T03:35:29.125Z,46.10
2019-04-29T03:36:02.156Z,44.67
2019-04-29T03:36:35.290Z,47.35
2019-04-29T03:37:08.430Z,44.85
2019-04-29T03:37:41.438Z,46.35
2019-04-29T03:38:14.580Z,47.50
2019-04-29T03:38:47.505Z,47.65
2019-04-29T03:39:20.518Z,43.55
2019-04-29T03:39:53.415Z,43.42
2019-04-29T03:40:26.468Z,42.85
2019-04-29T03:40:59.358Z,43.13
2019-04-29T03:41:33.166Z,44.35
2019-04-29T03:42:07.401Z,44.05
2019-04-29T03:42:40.792Z,44.33
2019-04-29T03:43:13.790Z,45.70
2019-04-29T03:43:46.936Z,49.10
2019-04-29T03:44:20.161Z,43.92
2019-04-29T03:44:54.204Z,43.50
2019-04-29T03:45:27.184Z,42.50
2019-04-29T03:46:00.436Z,42.53
2019-04-29T03:46:33.556Z,41.92
2019-04-29T03:47:06.508Z,42.75
2019-04-29T03:47:39.541Z,44.98
2019-04-29T03:48:12.410Z,41.63
2019-04-29T03:48:45.424Z,41.50
2019-04-29T03:49:18.569Z,43.15
2019-04-29T03:49:51.557Z,41.63
2019-04-29T03:50:25.523Z,41.35
2019-04-29T03:50:58.622Z,42.98
2019-04-29T03:51:31.753Z,42.05
2019-04-29T03:52:04.864Z,42.30
2019-04-29T03:52:37.709Z,43.73
2019-04-29T03:53:10.603Z,44.55
2019-04-29T03:53:43.662Z,42.50
2019-04-29T03:54:16.518Z,41.95
2019-04-29T03:54:49.780Z,42.03
2019-04-29T03:55:38.311Z,46.35
2019-04-29T03:55:58.820Z,44.20
2019-04-29T03:56:32.743Z,43.65
2019-04-29T03:57:06.528Z,44.33
2019-04-29T03:57:39.471Z,42.03
2019-04-29T03:58:13.099Z,45.30
2019-04-29T03:58:46.171Z,43.00
2019-04-29T03:59:19.356Z,41.53
2019-04-29T03:59:52.332Z,42.13
2019-04-29T04:00:25.469Z,44.77
2019-04-29T04:01:15.705Z,43.98
2019-04-29T04:02:08.238Z,41.28
2019-04-29T04:03:19.803Z,43.48
2019-04-29T04:04:04.208Z,42.80
2019-04-29T04:05:12.120Z,41.77
2019-04-29T04:05:54.873Z,45.08
2019-04-29T04:06:34.301Z,43.50
2019-04-29T04:07:25.511Z,43.30
2019-04-29T04:08:03.143Z,47.20
2019-04-29T04:09:04.758Z,42.78
2019-04-29T04:09:27.967Z,42.00
2019-04-29T04:10:01.118Z,43.45
2019-04-29T04:10:35.316Z,43.70
2019-04-29T04:11:08.558Z,42.73
2019-04-29T04:11:41.453Z,43.85
2019-04-29T04:12:14.425Z,45.05
2019-04-29T04:12:47.325Z,46.90
2019-04-29T04:13:20.220Z,44.27
2019-04-29T04:13:53.244Z,46.35
2019-04-29T04:14:26.276Z,45.65
2019-04-29T04:14:59.297Z,41.18
2019-04-29T04:15:32.330Z,46.77
2019-04-29T04:16:07.202Z,45.58
2019-04-29T04:17:20.446Z,45.63
2019-04-29T04:18:15.291Z,41.75
2019-04-29T04:18:48.296Z,47.90
2019-04-29T04:19:21.575Z,42.10
2019-04-29T04:19:54.633Z,41.53
2019-04-29T04:20:27.778Z,45.05
2019-04-29T04:21:00.681Z,43.38
2019-04-29T04:21:33.701Z,47.33
2019-04-29T04:22:06.716Z,47.73
2019-04-29T04:22:46.783Z,49.70
2019-04-29T04:23:19.662Z,53.70
2019-04-29T04:23:52.579Z,49.77
2019-04-29T04:24:25.476Z,50.80
2019-04-29T04:24:58.444Z,48.60
2019-04-29T04:25:31.475Z,51.00
2019-04-29T04:26:04.613Z,47.30
2019-04-29T04:26:37.646Z,46.68
2019-04-29T04:27:10.658Z,48.33
2019-04-29T04:27:43.773Z,49.08
2019-04-29T04:28:16.816Z,46.90
2019-04-29T04:28:49.949Z,47.65
2019-04-29T04:29:23.897Z,46.20
2019-04-29T04:29:57.010Z,48.50
2019-04-29T04:30:29.993Z,51.63
2019-04-29T04:31:06.787Z,50.65
2019-04-29T04:31:37.801Z,50.03
2019-04-29T04:32:10.802Z,50.15
2019-04-29T04:32:43.985Z,53.45
2019-04-29T04:33:18.134Z,52.27
2019-04-29T04:33:51.072Z,53.68
2019-04-29T04:34:23.972Z,58.52
2019-04-29T04:34:57.100Z,55.28
2019-04-29T04:35:30.167Z,53.68
2019-04-29T04:36:04.181Z,48.92
2019-04-29T04:36:37.012Z,48.52
2019-04-29T04:37:10.121Z,48.98
2019-04-29T04:37:44.188Z,45.33
2019-04-29T04:38:17.326Z,49.60
2019-04-29T04:38:50.327Z,46.70
2019-04-29T04:39:24.188Z,49.45
2019-04-29T04:39:57.247Z,47.38
2019-04-29T04:40:34.599Z,47.35
2019-04-29T04:41:08.594Z,45.73
2019-04-29T04:41:41.616Z,48.25
2019-04-29T04:42:14.526Z,48.40
2019-04-29T04:42:47.499Z,45.23
2019-04-29T04:43:20.548Z,44.63
2019-04-29T04:43:53.455Z,42.95
2019-04-29T04:44:45.980Z,42.55
2019-04-29T04:45:19.111Z,46.08
2019-04-29T04:45:52.096Z,43.95
2019-04-29T04:46:25.202Z,41.70
2019-04-29T04:46:58.021Z,44.38
2019-04-29T04:47:31.136Z,49.50
2019-04-29T04:48:04.284Z,43.25
2019-04-29T04:48:37.222Z,42.88
2019-04-29T04:49:10.328Z,44.55
2019-04-29T04:49:43.333Z,42.62
2019-04-29T04:50:16.847Z,46.18
2019-04-29T04:50:49.843Z,47.58
2019-04-29T04:51:22.636Z,48.30
2019-04-29T04:51:55.549Z,48.87
2019-04-29T04:52:28.655Z,44.60
2019-04-29T04:53:01.759Z,46.60
2019-04-29T04:53:34.718Z,47.33
2019-04-29T04:54:07.699Z,51.45
2019-04-29T04:54:40.677Z,47.27
2019-04-29T04:55:13.910Z,49.70
2019-04-29T04:55:47.802Z,47.60
2019-04-29T04:56:20.795Z,46.40
2019-04-29T04:56:53.802Z,50.80
2019-04-29T04:57:26.698Z,58.15
2019-04-29T04:57:59.836Z,53.38
2019-04-29T04:58:32.866Z,51.73
2019-04-29T04:59:05.815Z,56.58
2019-04-29T04:59:38.973Z,50.80
2019-04-29T05:00:20.242Z,54.85
2019-04-29T05:00:53.312Z,58.30
2019-04-29T05:01:26.349Z,56.92
2019-04-29T05:02:00.380Z,60.60
2019-04-29T05:02:33.338Z,62.53
2019-04-29T05:03:07.944Z,57.13
2019-04-29T05:03:40.962Z,61.48
2019-04-29T05:04:14.052Z,59.45
2019-04-29T05:04:47.191Z,62.83
2019-04-29T05:05:20.195Z,62.38
2019-04-29T05:05:53.210Z,58.25
2019-04-29T05:06:26.251Z,62.43
2019-04-29T05:06:59.290Z,61.68
2019-04-29T05:07:32.294Z,69.47
2019-04-29T05:08:05.328Z,63.58
2019-04-29T05:08:38.387Z,65.35
2019-04-29T05:09:11.290Z,62.88
2019-04-29T05:09:44.412Z,62.05
2019-04-29T05:10:17.562Z,58.58
2019-04-29T05:10:50.516Z,64.45
2019-04-29T05:11:23.432Z,62.62
2019-04-29T05:11:56.434Z,60.10
2019-04-29T05:12:29.450Z,58.30
2019-04-29T05:13:03.675Z,57.03
2019-04-29T05:13:36.686Z,59.03
2019-04-29T05:14:09.700Z,60.43
2019-04-29T05:14:42.808Z,55.48
2019-04-29T05:15:16.023Z,55.90
2019-04-29T05:15:49.128Z,57.50
2019-04-29T05:16:22.258Z,56.23
2019-04-29T05:16:55.302Z,57.20
2019-04-29T05:17:28.328Z,55.33
2019-04-29T05:18:01.251Z,53.78
2019-04-29T05:18:35.318Z,57.33
2019-04-29T05:19:08.350Z,57.43
2019-04-29T05:19:41.397Z,57.55
2019-04-29T05:20:14.418Z,56.75
2019-04-29T05:20:48.728Z,53.85
2019-04-29T05:21:21.725Z,50.83
2019-04-29T05:21:54.835Z,57.33
2019-04-29T05:22:27.825Z,58.13
2019-04-29T05:23:00.901Z,57.50
2019-04-29T05:23:33.718Z,59.70
2019-04-29T05:24:06.642Z,51.13
2019-04-29T05:24:39.710Z,50.25
2019-04-29T05:25:12.815Z,53.63
2019-04-29T05:25:45.878Z,52.95
2019-04-29T05:26:19.015Z,49.40
2019-04-29T05:26:52.013Z,53.60
2019-04-29T05:27:25.034Z,50.35
2019-04-29T05:27:59.382Z,53.60
2019-04-29T05:28:32.308Z,56.70
2019-04-29T05:29:05.216Z,61.18
2019-04-29T05:29:38.196Z,59.63
2019-04-29T05:30:11.270Z,53.90
2019-04-29T05:30:44.402Z,56.08
2019-04-29T05:31:17.432Z,58.05
2019-04-29T05:31:50.474Z,55.98
2019-04-29T05:32:23.535Z,55.03
2019-04-29T05:32:56.573Z,55.30
2019-04-29T05:33:29.578Z,52.15
2019-04-29T05:34:02.629Z,48.83
2019-04-29T05:34:41.738Z,53.30
2019-04-29T05:35:14.398Z,54.70
2019-04-29T05:36:19.068Z,51.95
2019-04-29T05:37:14.909Z,53.15
2019-04-29T05:38:02.971Z,48.17
2019-04-29T05:38:42.433Z,47.88
2019-04-29T05:39:21.942Z,48.42
2019-04-29T05:39:54.874Z,46.58
2019-04-29T05:40:39.969Z,47.15
2019-04-29T05:41:13.376Z,49.38
2019-04-29T05:41:46.474Z,48.87
2019-04-29T05:42:20.417Z,48.45
2019-04-29T05:42:54.069Z,45.40
2019-04-29T05:43:40.369Z,43.55
2019-04-29T05:44:22.960Z,43.92
2019-04-29T05:45:03.239Z,46.13
2019-04-29T05:45:46.200Z,43.78
2019-04-29T05:46:26.194Z,44.48
2019-04-29T05:47:17.987Z,45.23
2019-04-29T05:48:06.721Z,44.23
2019-04-29T05:48:39.702Z,44.23
2019-04-29T05:49:15.157Z,46.80
2019-04-29T05:50:06.737Z,43.68
2019-04-29T05:50:53.302Z,43.48
2019-04-29T05:51:48.016Z,43.83
2019-04-29T05:52:41.167Z,42.83
2019-04-29T05:53:28.386Z,44.23
2019-04-29T05:54:02.198Z,44.10
2019-04-29T05:54:35.280Z,43.02
2019-04-29T05:55:09.597Z,43.68
2019-04-29T05:55:43.666Z,43.20
2019-04-29T05:56:18.138Z,43.63
2019-04-29T05:56:51.210Z,43.00
2019-04-29T05:57:25.440Z,43.68
2019-04-29T05:58:10.502Z,43.13
2019-04-29T05:58:43.447Z,44.45
2019-04-29T05:59:16.370Z,45.28
2019-04-29T05:59:49.586Z,44.20
2019-04-29T06:00:23.217Z,44.33
2019-04-29T06:01:01.290Z,43.87
2019-04-29T06:01:34.370Z,43.00
2019-04-29T06:02:07.391Z,43.28
2019-04-29T06:02:40.315Z,43.05
2019-04-29T06:03:13.332Z,44.13
2019-04-29T06:03:46.354Z,43.78
2019-04-29T06:04:19.420Z,44.27
2019-04-29T06:04:53.952Z,44.30
2019-04-29T06:05:27.136Z,44.67
2019-04-29T06:06:00.352Z,44.30
2019-04-29T06:06:33.507Z,44.08
2019-04-29T06:07:06.638Z,43.80
2019-04-29T06:07:39.549Z,46.25
2019-04-29T06:08:12.617Z,44.48
2019-04-29T06:08:45.899Z,44.63
2019-04-29T06:09:18.998Z,44.05
2019-04-29T06:09:51.923Z,44.67
2019-04-29T06:10:24.865Z,43.73
2019-04-29T06:10:57.853Z,43.15
2019-04-29T06:11:30.770Z,42.60
2019-04-29T06:12:04.066Z,43.08
2019-04-29T06:12:37.013Z,43.50
2019-04-29T06:13:18.899Z,42.55
2019-04-29T06:14:04.588Z,43.33
2019-04-29T06:14:37.863Z,42.27
2019-04-29T06:15:11.131Z,42.45
2019-04-29T06:15:44.138Z,42.35
2019-04-29T06:16:21.054Z,43.17
2019-04-29T06:16:52.904Z,42.03
2019-04-29T06:17:29.079Z,42.43
2019-04-29T06:18:02.511Z,43.28
2019-04-29T06:18:35.556Z,41.95
2019-04-29T06:19:16.592Z,42.25
2019-04-29T06:20:00.268Z,42.03
2019-04-29T06:20:34.108Z,41.70
2019-04-29T06:21:09.682Z,41.45
2019-04-29T06:21:45.821Z,41.23
2019-04-29T06:22:18.890Z,41.55
2019-04-29T06:22:53.833Z,41.53
2019-04-29T06:23:34.580Z,41.05
2019-04-29T06:24:07.813Z,39.75
2019-04-29T06:24:42.150Z,39.98
2019-04-29T06:25:15.596Z,41.02
2019-04-29T06:25:48.755Z,40.83
2019-04-29T06:26:22.122Z,39.90
2019-04-29T06:26:55.414Z,40.88
2019-04-29T06:27:28.518Z,40.63
2019-04-29T06:28:03.498Z,40.28
2019-04-29T06:28:38.522Z,38.60
2019-04-29T06:29:11.523Z,40.47
2019-04-29T06:29:44.489Z,39.85
2019-04-29T06:30:17.522Z,39.33
2019-04-29T06:30:51.971Z,39.85
2019-04-29T06:31:26.828Z,39.10
2019-04-29T06:31:59.884Z,39.95
2019-04-29T06:32:33.052Z,39.80
2019-04-29T06:33:06.048Z,38.98
2019-04-29T06:33:39.094Z,38.88
2019-04-29T06:34:12.104Z,38.88
2019-04-29T06:34:45.168Z,38.13
2019-04-29T06:35:18.234Z,38.65
2019-04-29T06:35:51.494Z,38.53
2019-04-29T06:36:24.674Z,38.35
2019-04-29T06:36:57.794Z,38.60
2019-04-29T06:37:30.868Z,38.73
2019-04-29T06:38:04.372Z,39.48
2019-04-29T06:38:39.214Z,38.85
2019-04-29T06:39:12.414Z,38.85
2019-04-29T06:39:48.318Z,38.73
2019-04-29T06:40:24.166Z,38.17
2019-04-29T06:40:57.294Z,38.75
2019-04-29T06:41:30.559Z,39.00
2019-04-29T06:42:07.631Z,38.50
2019-04-29T06:42:40.654Z,39.03
2019-04-29T06:43:17.158Z,39.60
2019-04-29T06:43:53.111Z,39.70
2019-04-29T06:44:25.079Z,37.38
2019-04-29T06:44:58.016Z,37.80
2019-04-29T06:45:31.012Z,37.30
2019-04-29T06:46:05.840Z,36.90
2019-04-29T06:46:38.877Z,36.83
2019-04-29T06:47:11.940Z,36.88
2019-04-29T06:47:47.458Z,37.03
2019-04-29T06:48:20.928Z,36.60
2019-04-29T06:48:54.192Z,36.13
2019-04-29T06:49:27.133Z,36.42
2019-04-29T06:50:00.262Z,35.58
2019-04-29T06:50:33.448Z,36.10
2019-04-29T06:51:06.380Z,36.17
2019-04-29T06:51:39.460Z,36.80
2019-04-29T06:52:12.482Z,37.17
2019-04-29T06:52:45.554Z,36.45
2019-04-29T06:53:21.238Z,37.25
2019-04-29T06:53:53.632Z,37.10
2019-04-29T06:54:26.645Z,36.55
2019-04-29T06:54:59.868Z,36.10
2019-04-29T06:55:33.034Z,36.85
2019-04-29T06:56:09.133Z,37.08
2019-04-29T06:56:42.344Z,37.58
2019-04-29T06:57:15.384Z,36.35
2019-04-29T06:57:48.599Z,36.00
2019-04-29T06:58:21.648Z,35.83
2019-04-29T06:58:54.742Z,36.08
2019-04-29T06:59:27.848Z,35.48
2019-04-29T07:00:00.946Z,36.35
2019-04-29T07:00:35.294Z,36.38
2019-04-29T07:01:08.272Z,35.75
2019-04-29T07:01:41.352Z,35.68
2019-04-29T07:02:15.935Z,36.05
2019-04-29T07:02:49.864Z,35.80
2019-04-29T07:03:25.458Z,36.83
2019-04-29T07:04:01.464Z,35.68
2019-04-29T07:04:37.008Z,35.60
2019-04-29T07:05:11.452Z,36.10
2019-04-29T07:05:44.465Z,36.10
2019-04-29T07:06:19.267Z,35.95
2019-04-29T07:06:57.496Z,35.13
2019-04-29T07:07:27.086Z,35.60
2019-04-29T07:08:00.204Z,35.13
2019-04-29T07:08:33.972Z,35.98
2019-04-29T07:09:07.083Z,36.53
2019-04-29T07:09:40.604Z,35.63
2019-04-29T07:10:16.481Z,35.83
2019-04-29T07:10:48.710Z,36.15
2019-04-29T07:11:21.940Z,35.83
2019-04-29T07:12:01.374Z,36.13
2019-04-29T07:12:30.106Z,35.78
2019-04-29T07:13:04.295Z,35.92
2019-04-29T07:13:37.334Z,35.95
2019-04-29T07:14:10.654Z,35.85
2019-04-29T07:14:43.714Z,36.75
2019-04-29T07:15:16.793Z,36.28
2019-04-29T07:15:50.937Z,36.15
2019-04-29T07:16:27.343Z,36.05
2019-04-29T07:17:00.754Z,35.70
2019-04-29T07:17:36.591Z,35.50
2019-04-29T07:18:09.862Z,35.58
2019-04-29T07:18:48.183Z,36.28
2019-04-29T07:19:17.795Z,36.13
2019-04-29T07:19:51.033Z,36.17
2019-04-29T07:20:25.182Z,35.90
2019-04-29T07:20:58.636Z,36.10
2019-04-29T07:21:31.797Z,36.42
2019-04-29T07:22:05.180Z,35.35
2019-04-29T07:22:38.302Z,35.83
2019-04-29T07:23:11.507Z,35.92
2019-04-29T07:23:44.683Z,35.83
2019-04-29T07:24:20.323Z,36.70
2019-04-29T07:24:52.858Z,36.33
2019-04-29T07:25:28.798Z,36.30
2019-04-29T07:26:02.588Z,35.90
2019-04-29T07:26:36.020Z,36.38
2019-04-29T07:27:09.173Z,36.30
2019-04-29T07:27:44.262Z,36.40
2019-04-29T07:28:19.664Z,35.60
2019-04-29T07:28:55.817Z,35.92
2019-04-29T07:29:30.762Z,36.03
2019-04-29T07:30:06.568Z,36.30
2019-04-29T07:30:59.967Z,36.68
2019-04-29T07:31:13.656Z,36.53
2019-04-29T07:31:46.805Z,36.63
2019-04-29T07:32:19.927Z,36.10
2019-04-29T07:32:52.957Z,36.25
2019-04-29T07:33:26.028Z,36.70
2019-04-29T07:33:59.136Z,36.85
2019-04-29T07:34:33.776Z,36.70
2019-04-29T07:35:09.812Z,35.75
2019-04-29T07:35:42.948Z,35.55
2019-04-29T07:36:18.581Z,35.15
2019-04-29T07:36:53.293Z,35.88
2019-04-29T07:37:29.788Z,35.75